sensor_id;sensor_type;location;lat;lon;timestamp;pressure;altitude;pressure_sealevel;temperature;humidity
59531;BME280;45349;48.692;8.186;2022-12-28T00:01:06;99443.19;;;5.24;82.30
59531;BME280;45349;48.692;8.186;2022-12-28T00:03:33;99433.16;;;5.32;81.29
59531;BME280;45349;48.692;8.186;2022-12-28T00:05:59;99432.53;;;5.28;81.69
59531;BME280;45349;48.692;8.186;2022-12-28T00:08:26;99421.56;;;5.25;81.72
59531;BME280;45349;48.692;8.186;2022-12-28T00:10:58;99413.53;;;5.42;80.38
59531;BME280;45349;48.692;8.186;2022-12-28T00:13:26;99423.50;;;5.49;79.92
59531;BME280;45349;48.692;8.186;2022-12-28T00:15:52;99436.97;;;5.54;79.88
59531;BME280;45349;48.692;8.186;2022-12-28T00:18:20;99433.47;;;5.55;79.89
59531;BME280;45349;48.692;8.186;2022-12-28T00:20:55;99427.56;;;5.53;79.74
59531;BME280;45349;48.692;8.186;2022-12-28T00:23:22;99422.28;;;5.54;79.62
59531;BME280;45349;48.692;8.186;2022-12-28T00:25:48;99426.16;;;5.61;79.12
59531;BME280;45349;48.692;8.186;2022-12-28T00:28:15;99419.03;;;5.78;77.46
59531;BME280;45349;48.692;8.186;2022-12-28T00:30:41;99414.78;;;5.90;77.46
59531;BME280;45349;48.692;8.186;2022-12-28T00:33:08;99417.38;;;5.90;77.34
59531;BME280;45349;48.692;8.186;2022-12-28T00:35:36;99430.53;;;5.87;77.41
59531;BME280;45349;48.692;8.186;2022-12-28T00:38:02;99416.13;;;5.96;76.44
59531;BME280;45349;48.692;8.186;2022-12-28T00:40:29;99412.41;;;5.87;77.33
59531;BME280;45349;48.692;8.186;2022-12-28T00:42:55;99407.03;;;5.90;76.75
59531;BME280;45349;48.692;8.186;2022-12-28T00:45:22;99409.09;;;5.98;75.21
59531;BME280;45349;48.692;8.186;2022-12-28T00:47:48;99403.53;;;6.04;75.39
59531;BME280;45349;48.692;8.186;2022-12-28T00:50:15;99399.81;;;6.08;75.24
59531;BME280;45349;48.692;8.186;2022-12-28T00:52:43;99396.69;;;6.03;75.52
59531;BME280;45349;48.692;8.186;2022-12-28T00:55:10;99379.47;;;6.02;76.23
59531;BME280;45349;48.692;8.186;2022-12-28T00:57:36;99385.50;;;6.02;75.33
59531;BME280;45349;48.692;8.186;2022-12-28T01:00:07;99376.47;;;6.08;75.07
59531;BME280;45349;48.692;8.186;2022-12-28T01:02:34;99370.28;;;6.11;75.41
59531;BME280;45349;48.692;8.186;2022-12-28T01:05:02;99376.59;;;6.19;75.44
59531;BME280;45349;48.692;8.186;2022-12-28T01:07:29;99370.66;;;6.17;74.87
59531;BME280;45349;48.692;8.186;2022-12-28T01:09:57;99365.59;;;6.29;73.98
59531;BME280;45349;48.692;8.186;2022-12-28T01:12:23;99363.19;;;6.39;74.37
59531;BME280;45349;48.692;8.186;2022-12-28T01:14:50;99355.41;;;6.39;74.06
59531;BME280;45349;48.692;8.186;2022-12-28T01:17:16;99368.88;;;6.44;73.21
59531;BME280;45349;48.692;8.186;2022-12-28T01:19:43;99361.09;;;6.44;73.28
59531;BME280;45349;48.692;8.186;2022-12-28T01:22:10;99353.31;;;6.44;73.63
59531;BME280;45349;48.692;8.186;2022-12-28T01:24:37;99356.53;;;6.47;72.88
59531;BME280;45349;48.692;8.186;2022-12-28T01:27:04;99353.03;;;6.48;72.51
59531;BME280;45349;48.692;8.186;2022-12-28T01:29:31;99347.09;;;6.46;74.15
59531;BME280;45349;48.692;8.186;2022-12-28T01:31:58;99339.00;;;6.51;72.79
59531;BME280;45349;48.692;8.186;2022-12-28T01:34:24;99340.94;;;6.60;72.81
59531;BME280;45349;48.692;8.186;2022-12-28T01:36:51;99330.56;;;6.73;70.98
59531;BME280;45349;48.692;8.186;2022-12-28T01:39:18;99342.25;;;6.79;70.73
59531;BME280;45349;48.692;8.186;2022-12-28T01:41:44;99323.06;;;6.82;71.04
59531;BME280;45349;48.692;8.186;2022-12-28T01:44:41;99331.34;;;6.87;70.91
59531;BME280;45349;48.692;8.186;2022-12-28T01:47:12;99328.28;;;6.93;71.40
59531;BME280;45349;48.692;8.186;2022-12-28T01:49:41;99335.63;;;6.99;70.21
59531;BME280;45349;48.692;8.186;2022-12-28T01:52:15;99351.09;;;7.01;70.17
59531;BME280;45349;48.692;8.186;2022-12-28T01:54:45;99342.91;;;6.94;70.35
59531;BME280;45349;48.692;8.186;2022-12-28T01:57:14;99335.47;;;6.89;71.02
59531;BME280;45349;48.692;8.186;2022-12-28T01:59:45;99333.09;;;6.86;71.29
59531;BME280;45349;48.692;8.186;2022-12-28T02:02:14;99322.50;;;6.89;70.42
59531;BME280;45349;48.692;8.186;2022-12-28T02:04:41;99322.72;;;6.86;70.86
59531;BME280;45349;48.692;8.186;2022-12-28T02:07:08;99317.75;;;6.83;71.73
59531;BME280;45349;48.692;8.186;2022-12-28T02:09:38;99314.75;;;6.76;72.20
59531;BME280;45349;48.692;8.186;2022-12-28T02:12:06;99311.09;;;6.79;71.43
59531;BME280;45349;48.692;8.186;2022-12-28T02:14:34;99301.66;;;6.78;71.25
59531;BME280;45349;48.692;8.186;2022-12-28T02:17:02;99287.88;;;6.77;70.98
59531;BME280;45349;48.692;8.186;2022-12-28T02:19:33;99283.72;;;6.75;71.26
59531;BME280;45349;48.692;8.186;2022-12-28T02:22:21;99280.91;;;6.78;71.54
59531;BME280;45349;48.692;8.186;2022-12-28T02:25:18;99286.94;;;6.78;72.21
59531;BME280;45349;48.692;8.186;2022-12-28T02:27:55;99285.66;;;6.84;70.47
59531;BME280;45349;48.692;8.186;2022-12-28T02:30:25;99282.34;;;6.82;71.05
59531;BME280;45349;48.692;8.186;2022-12-28T02:32:58;99260.38;;;6.75;71.78
59531;BME280;45349;48.692;8.186;2022-12-28T02:35:31;99260.28;;;6.76;71.20
59531;BME280;45349;48.692;8.186;2022-12-28T02:38:02;99254.66;;;6.83;71.34
59531;BME280;45349;48.692;8.186;2022-12-28T02:40:34;99251.75;;;6.99;70.57
59531;BME280;45349;48.692;8.186;2022-12-28T02:43:03;99256.91;;;6.87;72.10
59531;BME280;45349;48.692;8.186;2022-12-28T02:45:33;99255.59;;;6.82;71.61
59531;BME280;45349;48.692;8.186;2022-12-28T02:48:18;99266.19;;;6.78;71.88
59531;BME280;45349;48.692;8.186;2022-12-28T02:51:13;99253.47;;;6.87;71.17
59531;BME280;45349;48.692;8.186;2022-12-28T02:53:54;99254.34;;;6.99;69.85
59531;BME280;45349;48.692;8.186;2022-12-28T02:56:33;99249.03;;;7.00;69.70
59531;BME280;45349;48.692;8.186;2022-12-28T02:59:28;99252.19;;;6.92;71.49
59531;BME280;45349;48.692;8.186;2022-12-28T03:02:13;99238.38;;;6.92;71.85
59531;BME280;45349;48.692;8.186;2022-12-28T03:04:54;99239.09;;;6.94;71.06
59531;BME280;45349;48.692;8.186;2022-12-28T03:07:27;99228.38;;;6.99;70.80
59531;BME280;45349;48.692;8.186;2022-12-28T03:10:18;99228.16;;;7.02;70.54
59531;BME280;45349;48.692;8.186;2022-12-28T03:12:49;99234.41;;;6.99;71.83
59531;BME280;45349;48.692;8.186;2022-12-28T03:15:24;99240.44;;;7.00;70.80
59531;BME280;45349;48.692;8.186;2022-12-28T03:18:00;99231.47;;;7.04;70.62
59531;BME280;45349;48.692;8.186;2022-12-28T03:20:46;99221.81;;;7.06;70.45
59531;BME280;45349;48.692;8.186;2022-12-28T03:23:34;99225.56;;;7.02;71.10
59531;BME280;45349;48.692;8.186;2022-12-28T03:26:22;99237.88;;;7.11;71.40
59531;BME280;45349;48.692;8.186;2022-12-28T03:29:08;99213.56;;;7.12;70.83
59531;BME280;45349;48.692;8.186;2022-12-28T03:31:55;99200.47;;;7.14;71.11
59531;BME280;45349;48.692;8.186;2022-12-28T03:34:24;99202.94;;;7.15;70.59
59531;BME280;45349;48.692;8.186;2022-12-28T03:36:55;99197.06;;;7.24;69.15
59531;BME280;45349;48.692;8.186;2022-12-28T03:39:31;99195.66;;;7.20;69.95
59531;BME280;45349;48.692;8.186;2022-12-28T03:42:07;99192.22;;;7.20;71.42
59531;BME280;45349;48.692;8.186;2022-12-28T03:44:58;99181.94;;;7.18;71.58
59531;BME280;45349;48.692;8.186;2022-12-28T03:47:27;99179.59;;;7.15;71.70
59531;BME280;45349;48.692;8.186;2022-12-28T03:49:57;99177.81;;;7.16;71.54
59531;BME280;45349;48.692;8.186;2022-12-28T03:52:25;99176.28;;;7.13;71.01
59531;BME280;45349;48.692;8.186;2022-12-28T03:54:52;99180.03;;;7.09;70.99
59531;BME280;45349;48.692;8.186;2022-12-28T03:57:21;99179.78;;;7.01;72.15
59531;BME280;45349;48.692;8.186;2022-12-28T03:59:48;99172.31;;;6.96;72.07
59531;BME280;45349;48.692;8.186;2022-12-28T04:02:16;99176.09;;;6.92;73.23
59531;BME280;45349;48.692;8.186;2022-12-28T04:04:43;99169.81;;;6.83;73.00
59531;BME280;45349;48.692;8.186;2022-12-28T04:07:11;99160.75;;;6.77;73.03
59531;BME280;45349;48.692;8.186;2022-12-28T04:09:38;99157.47;;;6.87;72.75
59531;BME280;45349;48.692;8.186;2022-12-28T04:12:07;99168.84;;;6.73;73.53
59531;BME280;45349;48.692;8.186;2022-12-28T04:14:54;99165.31;;;6.74;74.04
59531;BME280;45349;48.692;8.186;2022-12-28T04:17:20;99178.13;;;6.64;74.34
59531;BME280;45349;48.692;8.186;2022-12-28T04:19:47;99186.56;;;6.79;73.78
59531;BME280;45349;48.692;8.186;2022-12-28T04:22:15;99171.13;;;6.77;74.37
59531;BME280;45349;48.692;8.186;2022-12-28T04:24:42;99179.72;;;6.78;73.42
59531;BME280;45349;48.692;8.186;2022-12-28T04:27:09;99167.84;;;6.87;73.59
59531;BME280;45349;48.692;8.186;2022-12-28T04:29:36;99172.22;;;6.98;73.60
59531;BME280;45349;48.692;8.186;2022-12-28T04:32:16;99170.25;;;7.24;72.43
59531;BME280;45349;48.692;8.186;2022-12-28T04:34:44;99169.31;;;7.25;72.42
59531;BME280;45349;48.692;8.186;2022-12-28T04:37:11;99169.00;;;7.41;71.30
59531;BME280;45349;48.692;8.186;2022-12-28T04:39:39;99146.66;;;7.38;71.52
59531;BME280;45349;48.692;8.186;2022-12-28T04:42:05;99158.47;;;7.43;71.23
59531;BME280;45349;48.692;8.186;2022-12-28T04:44:32;99159.06;;;7.35;71.76
59531;BME280;45349;48.692;8.186;2022-12-28T04:46:58;99146.31;;;7.32;70.56
59531;BME280;45349;48.692;8.186;2022-12-28T04:49:25;99158.22;;;7.23;72.35
59531;BME280;45349;48.692;8.186;2022-12-28T04:51:52;99154.34;;;7.17;73.01
59531;BME280;45349;48.692;8.186;2022-12-28T04:54:18;99151.03;;;7.15;71.56
59531;BME280;45349;48.692;8.186;2022-12-28T04:56:46;99144.75;;;7.06;72.24
59531;BME280;45349;48.692;8.186;2022-12-28T04:59:13;99145.81;;;7.04;71.88
59531;BME280;45349;48.692;8.186;2022-12-28T05:01:39;99146.97;;;7.00;71.78
59531;BME280;45349;48.692;8.186;2022-12-28T05:04:06;99151.06;;;6.91;74.21
59531;BME280;45349;48.692;8.186;2022-12-28T05:06:32;99141.19;;;7.07;71.72
59531;BME280;45349;48.692;8.186;2022-12-28T05:08:59;99144.19;;;7.14;71.69
59531;BME280;45349;48.692;8.186;2022-12-28T05:11:27;99136.84;;;7.08;71.96
59531;BME280;45349;48.692;8.186;2022-12-28T05:13:56;99138.59;;;6.96;72.77
59531;BME280;45349;48.692;8.186;2022-12-28T05:16:24;99130.31;;;6.91;72.88
59531;BME280;45349;48.692;8.186;2022-12-28T05:18:51;99146.59;;;6.93;73.60
59531;BME280;45349;48.692;8.186;2022-12-28T05:21:19;99139.03;;;6.90;73.30
59531;BME280;45349;48.692;8.186;2022-12-28T05:23:47;99132.44;;;6.97;72.02
59531;BME280;45349;48.692;8.186;2022-12-28T05:26:15;99146.38;;;6.96;72.72
59531;BME280;45349;48.692;8.186;2022-12-28T05:28:43;99151.25;;;7.12;73.51
59531;BME280;45349;48.692;8.186;2022-12-28T05:31:13;99143.25;;;7.27;70.65
59531;BME280;45349;48.692;8.186;2022-12-28T05:33:40;99142.03;;;7.08;72.21
59531;BME280;45349;48.692;8.186;2022-12-28T05:36:09;99130.94;;;6.94;72.16
59531;BME280;45349;48.692;8.186;2022-12-28T05:38:36;99110.41;;;6.91;72.48
59531;BME280;45349;48.692;8.186;2022-12-28T05:41:05;99124.19;;;6.92;73.32
59531;BME280;45349;48.692;8.186;2022-12-28T05:43:32;99117.59;;;6.99;72.01
59531;BME280;45349;48.692;8.186;2022-12-28T05:46:00;99129.16;;;6.95;73.75
59531;BME280;45349;48.692;8.186;2022-12-28T05:48:30;99125.97;;;6.91;74.00
59531;BME280;45349;48.692;8.186;2022-12-28T05:50:59;99113.47;;;6.97;74.16
59531;BME280;45349;48.692;8.186;2022-12-28T05:53:27;99124.34;;;7.02;73.51
59531;BME280;45349;48.692;8.186;2022-12-28T05:55:59;99119.97;;;7.14;71.94
59531;BME280;45349;48.692;8.186;2022-12-28T05:58:25;99117.38;;;7.25;70.46
59531;BME280;45349;48.692;8.186;2022-12-28T06:00:52;99116.59;;;7.36;70.96
59531;BME280;45349;48.692;8.186;2022-12-28T06:03:19;99112.34;;;7.35;71.22
59531;BME280;45349;48.692;8.186;2022-12-28T06:05:46;99099.59;;;7.32;71.86
59531;BME280;45349;48.692;8.186;2022-12-28T06:08:13;99102.19;;;7.32;70.75
59531;BME280;45349;48.692;8.186;2022-12-28T06:10:40;99103.94;;;7.20;71.79
59531;BME280;45349;48.692;8.186;2022-12-28T06:13:06;99108.78;;;7.13;72.16
59531;BME280;45349;48.692;8.186;2022-12-28T06:15:33;99106.19;;;7.13;72.63
59531;BME280;45349;48.692;8.186;2022-12-28T06:17:59;99110.66;;;7.00;73.33
59531;BME280;45349;48.692;8.186;2022-12-28T06:20:26;99115.16;;;7.09;72.75
59531;BME280;45349;48.692;8.186;2022-12-28T06:22:53;99095.44;;;7.18;71.53
59531;BME280;45349;48.692;8.186;2022-12-28T06:25:20;99089.53;;;7.16;72.49
59531;BME280;45349;48.692;8.186;2022-12-28T06:27:47;99094.94;;;7.13;72.43
59531;BME280;45349;48.692;8.186;2022-12-28T06:30:13;99095.56;;;7.16;71.92
59531;BME280;45349;48.692;8.186;2022-12-28T06:32:40;99084.47;;;7.26;71.19
59531;BME280;45349;48.692;8.186;2022-12-28T06:35:07;99074.09;;;7.26;71.52
59531;BME280;45349;48.692;8.186;2022-12-28T06:37:33;99078.56;;;7.35;71.22
59531;BME280;45349;48.692;8.186;2022-12-28T06:40:02;99077.88;;;7.33;71.63
59531;BME280;45349;48.692;8.186;2022-12-28T06:42:28;99089.78;;;7.35;70.56
59531;BME280;45349;48.692;8.186;2022-12-28T06:44:55;99075.84;;;7.36;70.72
59531;BME280;45349;48.692;8.186;2022-12-28T06:47:21;99078.56;;;7.35;70.51
59531;BME280;45349;48.692;8.186;2022-12-28T06:49:48;99076.91;;;7.34;70.78
59531;BME280;45349;48.692;8.186;2022-12-28T06:52:14;99077.72;;;7.34;70.58
59531;BME280;45349;48.692;8.186;2022-12-28T06:54:41;99072.66;;;7.33;71.26
59531;BME280;45349;48.692;8.186;2022-12-28T06:57:09;99066.78;;;7.31;71.11
59531;BME280;45349;48.692;8.186;2022-12-28T06:59:35;99069.69;;;7.37;70.03
59531;BME280;45349;48.692;8.186;2022-12-28T07:02:02;99066.00;;;7.51;70.63
59531;BME280;45349;48.692;8.186;2022-12-28T07:04:28;99073.56;;;7.54;69.43
59531;BME280;45349;48.692;8.186;2022-12-28T07:06:55;99055.59;;;7.63;68.19
59531;BME280;45349;48.692;8.186;2022-12-28T07:09:21;99057.97;;;7.66;68.80
59531;BME280;45349;48.692;8.186;2022-12-28T07:11:49;99050.53;;;7.73;68.36
59531;BME280;45349;48.692;8.186;2022-12-28T07:14:17;99068.34;;;7.77;69.34
59531;BME280;45349;48.692;8.186;2022-12-28T07:16:44;99065.63;;;7.79;68.41
59531;BME280;45349;48.692;8.186;2022-12-28T07:19:16;99071.75;;;7.89;68.63
59531;BME280;45349;48.692;8.186;2022-12-28T07:21:42;99069.84;;;7.91;68.70
59531;BME280;45349;48.692;8.186;2022-12-28T07:24:09;99065.22;;;7.95;67.27
59531;BME280;45349;48.692;8.186;2022-12-28T07:26:36;99050.00;;;7.90;67.51
59531;BME280;45349;48.692;8.186;2022-12-28T07:29:04;99053.41;;;7.91;67.05
59531;BME280;45349;48.692;8.186;2022-12-28T07:31:35;99058.38;;;7.94;66.58
59531;BME280;45349;48.692;8.186;2022-12-28T07:34:02;99059.50;;;8.12;66.25
59531;BME280;45349;48.692;8.186;2022-12-28T07:36:30;99049.13;;;8.01;67.22
59531;BME280;45349;48.692;8.186;2022-12-28T07:38:58;99045.19;;;8.07;66.50
59531;BME280;45349;48.692;8.186;2022-12-28T07:41:27;99038.00;;;8.10;66.55
59531;BME280;45349;48.692;8.186;2022-12-28T07:43:57;99031.69;;;8.13;66.38
59531;BME280;45349;48.692;8.186;2022-12-28T07:46:26;99035.59;;;8.19;65.66
59531;BME280;45349;48.692;8.186;2022-12-28T07:48:54;99026.38;;;8.15;65.55
59531;BME280;45349;48.692;8.186;2022-12-28T07:51:23;99033.25;;;8.16;66.45
59531;BME280;45349;48.692;8.186;2022-12-28T07:53:52;99032.41;;;8.15;66.13
59531;BME280;45349;48.692;8.186;2022-12-28T07:56:20;99039.13;;;8.18;65.53
59531;BME280;45349;48.692;8.186;2022-12-28T07:58:48;99035.94;;;8.14;67.09
59531;BME280;45349;48.692;8.186;2022-12-28T08:01:16;99024.25;;;8.20;65.79
59531;BME280;45349;48.692;8.186;2022-12-28T08:03:44;99017.25;;;8.20;65.33
59531;BME280;45349;48.692;8.186;2022-12-28T08:06:13;99037.00;;;8.23;65.73
59531;BME280;45349;48.692;8.186;2022-12-28T08:08:44;99023.16;;;8.22;65.08
59531;BME280;45349;48.692;8.186;2022-12-28T08:11:12;99024.69;;;8.25;65.25
59531;BME280;45349;48.692;8.186;2022-12-28T08:13:41;99032.09;;;8.30;65.39
59531;BME280;45349;48.692;8.186;2022-12-28T08:16:10;99019.28;;;8.38;65.93
59531;BME280;45349;48.692;8.186;2022-12-28T08:18:37;99036.75;;;8.47;65.18
59531;BME280;45349;48.692;8.186;2022-12-28T08:21:06;99024.19;;;8.52;64.31
59531;BME280;45349;48.692;8.186;2022-12-28T08:23:38;99023.25;;;8.53;64.54
59531;BME280;45349;48.692;8.186;2022-12-28T08:26:06;99009.59;;;8.61;63.78
59531;BME280;45349;48.692;8.186;2022-12-28T08:28:34;99019.03;;;8.62;65.13
59531;BME280;45349;48.692;8.186;2022-12-28T08:31:04;99014.09;;;8.59;65.42
59531;BME280;45349;48.692;8.186;2022-12-28T08:33:31;99006.97;;;8.61;64.49
59531;BME280;45349;48.692;8.186;2022-12-28T08:35:58;99016.88;;;8.67;64.37
59531;BME280;45349;48.692;8.186;2022-12-28T08:38:24;99007.06;;;8.71;64.20
59531;BME280;45349;48.692;8.186;2022-12-28T08:40:55;99010.78;;;8.78;63.40
59531;BME280;45349;48.692;8.186;2022-12-28T08:43:22;98994.91;;;8.81;62.67
59531;BME280;45349;48.692;8.186;2022-12-28T08:45:55;99009.44;;;8.84;63.86
59531;BME280;45349;48.692;8.186;2022-12-28T08:48:22;98996.16;;;8.87;63.10
59531;BME280;45349;48.692;8.186;2022-12-28T08:50:49;99012.47;;;8.89;63.41
59531;BME280;45349;48.692;8.186;2022-12-28T08:53:15;98989.22;;;8.97;62.61
59531;BME280;45349;48.692;8.186;2022-12-28T08:55:42;98998.38;;;8.92;62.45
59531;BME280;45349;48.692;8.186;2022-12-28T08:58:10;98994.41;;;8.97;63.09
59531;BME280;45349;48.692;8.186;2022-12-28T09:00:36;98989.75;;;9.01;62.03
59531;BME280;45349;48.692;8.186;2022-12-28T09:03:03;98983.34;;;9.05;62.07
59531;BME280;45349;48.692;8.186;2022-12-28T09:05:29;98992.41;;;9.11;63.46
59531;BME280;45349;48.692;8.186;2022-12-28T09:07:56;98991.56;;;9.10;62.67
59531;BME280;45349;48.692;8.186;2022-12-28T09:10:22;98992.16;;;9.14;62.68
59531;BME280;45349;48.692;8.186;2022-12-28T09:12:49;98979.41;;;9.21;62.59
59531;BME280;45349;48.692;8.186;2022-12-28T09:15:18;98983.53;;;9.23;62.07
59531;BME280;45349;48.692;8.186;2022-12-28T09:17:47;98986.16;;;9.23;61.60
59531;BME280;45349;48.692;8.186;2022-12-28T09:20:14;98988.22;;;9.29;62.08
59531;BME280;45349;48.692;8.186;2022-12-28T09:22:40;98987.38;;;9.29;62.18
59531;BME280;45349;48.692;8.186;2022-12-28T09:25:07;98995.50;;;9.36;61.96
59531;BME280;45349;48.692;8.186;2022-12-28T09:27:34;99002.34;;;9.37;61.77
59531;BME280;45349;48.692;8.186;2022-12-28T09:30:01;98994.44;;;9.48;61.16
59531;BME280;45349;48.692;8.186;2022-12-28T09:32:29;98990.72;;;9.41;62.71
59531;BME280;45349;48.692;8.186;2022-12-28T09:34:55;98998.22;;;9.34;62.22
59531;BME280;45349;48.692;8.186;2022-12-28T09:37:22;98993.00;;;9.34;61.76
59531;BME280;45349;48.692;8.186;2022-12-28T09:39:48;98998.94;;;9.46;60.83
59531;BME280;45349;48.692;8.186;2022-12-28T09:42:18;99007.31;;;9.50;61.29
59531;BME280;45349;48.692;8.186;2022-12-28T09:44:52;98999.63;;;9.48;60.84
59531;BME280;45349;48.692;8.186;2022-12-28T09:47:26;98991.81;;;9.58;60.58
59531;BME280;45349;48.692;8.186;2022-12-28T09:50:05;98998.53;;;9.60;62.64
59531;BME280;45349;48.692;8.186;2022-12-28T09:52:35;98994.03;;;9.72;61.75
59531;BME280;45349;48.692;8.186;2022-12-28T09:55:10;99003.63;;;9.92;60.72
59531;BME280;45349;48.692;8.186;2022-12-28T09:57:41;99001.16;;;10.00;60.72
59531;BME280;45349;48.692;8.186;2022-12-28T10:00:15;99005.56;;;9.80;60.59
59531;BME280;45349;48.692;8.186;2022-12-28T10:02:44;99004.59;;;9.90;60.32
59531;BME280;45349;48.692;8.186;2022-12-28T10:05:14;99009.41;;;9.95;59.70
59531;BME280;45349;48.692;8.186;2022-12-28T10:07:41;98998.56;;;10.00;59.80
59531;BME280;45349;48.692;8.186;2022-12-28T10:10:11;99003.22;;;10.06;59.68
59531;BME280;45349;48.692;8.186;2022-12-28T10:12:40;98997.06;;;10.07;58.98
59531;BME280;45349;48.692;8.186;2022-12-28T10:15:09;98995.94;;;10.19;59.34
59531;BME280;45349;48.692;8.186;2022-12-28T10:17:37;98991.25;;;10.33;59.34
59531;BME280;45349;48.692;8.186;2022-12-28T10:20:04;98999.22;;;10.22;59.10
59531;BME280;45349;48.692;8.186;2022-12-28T10:22:37;98998.84;;;10.07;59.14
59531;BME280;45349;48.692;8.186;2022-12-28T10:25:12;98983.03;;;10.08;59.10
59531;BME280;45349;48.692;8.186;2022-12-28T10:27:39;98991.84;;;9.87;60.94
59531;BME280;45349;48.692;8.186;2022-12-28T10:30:14;98987.19;;;9.91;60.63
59531;BME280;45349;48.692;8.186;2022-12-28T10:32:48;98983.75;;;9.90;59.72
59531;BME280;45349;48.692;8.186;2022-12-28T10:35:21;98970.56;;;9.82;60.42
59531;BME280;45349;48.692;8.186;2022-12-28T10:37:50;98982.09;;;9.89;61.59
59531;BME280;45349;48.692;8.186;2022-12-28T10:40:22;98975.66;;;10.03;59.73
59531;BME280;45349;48.692;8.186;2022-12-28T10:42:51;98972.88;;;10.05;61.52
59531;BME280;45349;48.692;8.186;2022-12-28T10:45:22;98962.44;;;10.15;59.10
59531;BME280;45349;48.692;8.186;2022-12-28T10:47:51;98954.31;;;10.18;61.20
59531;BME280;45349;48.692;8.186;2022-12-28T10:50:38;98963.28;;;10.06;60.61
59531;BME280;45349;48.692;8.186;2022-12-28T10:53:15;98938.31;;;10.03;60.69
59531;BME280;45349;48.692;8.186;2022-12-28T10:55:41;98946.69;;;10.07;61.15
59531;BME280;45349;48.692;8.186;2022-12-28T10:58:19;98944.44;;;10.12;61.01
59531;BME280;45349;48.692;8.186;2022-12-28T11:00:53;98941.69;;;10.23;61.56
59531;BME280;45349;48.692;8.186;2022-12-28T11:03:25;98939.34;;;10.30;60.75
59531;BME280;45349;48.692;8.186;2022-12-28T11:06:10;98930.16;;;10.26;60.15
59531;BME280;45349;48.692;8.186;2022-12-28T11:08:40;98925.19;;;10.32;60.72
59531;BME280;45349;48.692;8.186;2022-12-28T11:11:16;98930.84;;;10.18;61.36
59531;BME280;45349;48.692;8.186;2022-12-28T11:13:44;98914.91;;;10.21;61.19
59531;BME280;45349;48.692;8.186;2022-12-28T11:16:13;98921.13;;;10.10;61.50
59531;BME280;45349;48.692;8.186;2022-12-28T11:18:40;98910.84;;;9.99;60.14
59531;BME280;45349;48.692;8.186;2022-12-28T11:21:09;98915.97;;;9.81;61.93
59531;BME280;45349;48.692;8.186;2022-12-28T11:23:37;98902.66;;;9.84;61.39
59531;BME280;45349;48.692;8.186;2022-12-28T11:26:09;98902.91;;;9.90;60.89
59531;BME280;45349;48.692;8.186;2022-12-28T11:28:38;98904.28;;;9.95;61.13
59531;BME280;45349;48.692;8.186;2022-12-28T11:31:06;98904.91;;;10.16;59.88
59531;BME280;45349;48.692;8.186;2022-12-28T11:33:39;98898.44;;;10.40;61.04
59531;BME280;45349;48.692;8.186;2022-12-28T11:36:13;98910.50;;;10.41;60.95
59531;BME280;45349;48.692;8.186;2022-12-28T11:38:42;98908.53;;;10.53;59.24
59531;BME280;45349;48.692;8.186;2022-12-28T11:41:10;98910.63;;;10.50;60.02
59531;BME280;45349;48.692;8.186;2022-12-28T11:43:39;98905.25;;;10.51;60.46
59531;BME280;45349;48.692;8.186;2022-12-28T11:46:37;98898.09;;;10.53;59.03
59531;BME280;45349;48.692;8.186;2022-12-28T11:49:22;98900.53;;;10.65;61.07
59531;BME280;45349;48.692;8.186;2022-12-28T11:54:54;98889.25;;;10.64;59.39
59531;BME280;45349;48.692;8.186;2022-12-28T11:57:34;98873.88;;;10.61;59.09
59531;BME280;45349;48.692;8.186;2022-12-28T12:00:45;98882.63;;;10.70;59.40
59531;BME280;45349;48.692;8.186;2022-12-28T12:03:12;98864.38;;;10.88;58.03
59531;BME280;45349;48.692;8.186;2022-12-28T12:05:50;98870.34;;;10.80;59.12
59531;BME280;45349;48.692;8.186;2022-12-28T12:08:40;98860.97;;;11.05;58.15
59531;BME280;45349;48.692;8.186;2022-12-28T12:11:27;98853.97;;;11.06;56.62
59531;BME280;45349;48.692;8.186;2022-12-28T12:13:58;98840.88;;;10.88;57.71
59531;BME280;45349;48.692;8.186;2022-12-28T12:16:30;98838.72;;;11.01;57.37
59531;BME280;45349;48.692;8.186;2022-12-28T12:18:59;98840.06;;;10.87;58.37
59531;BME280;45349;48.692;8.186;2022-12-28T12:21:34;98835.16;;;11.02;58.02
59531;BME280;45349;48.692;8.186;2022-12-28T12:24:09;98823.19;;;10.82;58.52
59531;BME280;45349;48.692;8.186;2022-12-28T12:26:44;98824.75;;;10.74;57.17
59531;BME280;45349;48.692;8.186;2022-12-28T12:29:14;98817.28;;;10.61;58.66
59531;BME280;45349;48.692;8.186;2022-12-28T12:31:45;98810.94;;;10.64;59.53
59531;BME280;45349;48.692;8.186;2022-12-28T12:34:18;98811.34;;;10.41;59.80
59531;BME280;45349;48.692;8.186;2022-12-28T12:37:03;98803.13;;;10.26;60.69
59531;BME280;45349;48.692;8.186;2022-12-28T12:39:45;98797.09;;;10.26;60.98
59531;BME280;45349;48.692;8.186;2022-12-28T12:42:25;98800.41;;;10.18;60.18
59531;BME280;45349;48.692;8.186;2022-12-28T12:44:59;98794.91;;;10.21;60.98
59531;BME280;45349;48.692;8.186;2022-12-28T12:47:52;98790.81;;;10.18;60.78
59531;BME280;45349;48.692;8.186;2022-12-28T12:50:41;98790.44;;;10.13;61.91
59531;BME280;45349;48.692;8.186;2022-12-28T12:53:25;98779.25;;;10.21;59.88
59531;BME280;45349;48.692;8.186;2022-12-28T12:56:03;98773.34;;;10.29;60.51
59531;BME280;45349;48.692;8.186;2022-12-28T12:58:46;98768.50;;;10.34;59.76
59531;BME280;45349;48.692;8.186;2022-12-28T13:01:23;98761.38;;;10.26;60.34
59531;BME280;45349;48.692;8.186;2022-12-28T13:03:53;98757.44;;;10.22;59.33
59531;BME280;45349;48.692;8.186;2022-12-28T13:06:22;98750.72;;;10.19;60.03
59531;BME280;45349;48.692;8.186;2022-12-28T13:08:52;98745.16;;;10.32;59.80
59531;BME280;45349;48.692;8.186;2022-12-28T13:11:20;98738.78;;;10.45;59.44
59531;BME280;45349;48.692;8.186;2022-12-28T13:13:51;98738.13;;;10.43;59.99
59531;BME280;45349;48.692;8.186;2022-12-28T13:16:19;98732.19;;;10.51;59.02
59531;BME280;45349;48.692;8.186;2022-12-28T13:18:55;98716.66;;;10.67;59.27
59531;BME280;45349;48.692;8.186;2022-12-28T13:21:23;98720.84;;;10.60;58.98
59531;BME280;45349;48.692;8.186;2022-12-28T13:23:50;98714.41;;;10.72;58.81
59531;BME280;45349;48.692;8.186;2022-12-28T13:26:19;98716.53;;;10.69;58.18
59531;BME280;45349;48.692;8.186;2022-12-28T13:28:56;98711.56;;;10.84;57.88